Freetown, Kentucky
Current Conditions -  °F | °C
As of 9:15 AM on Thursday 30 Oct 2014 (Local Time) from KGLW Reporting Station
Clear Clear  
Wind Chill: 47°   Ceiling: Unl
Heat Index: 47°   Visibility: 10mi
Dew Point: 39°   Wind: 0mph
Humidity: 73%   Direction: NA
Pressure: 30.17"   Gusts: NA
Location:  36.6549°N, 85.8315°W
Report Text: KGLW 301415Z AUTO 00000KT 10SM CLR 08/04 A3017 RMK AO2 T00820037
Loading
Personal Weather Stations






























Interactive Weather Map
Tropical Storm Tracking
New forecast layout! Learn more

10-Day Weather Forecast

Advertisements
Track Severe Weather on mobile